Andros, Greece
Current Conditions -  °F | °C
As of 12:20 AM on Wednesday 26 Nov 2014 (Local Time) from LGMK Reporting Station
Scattered Clouds Scattered Clouds  
Wind Chill: 50°   Ceiling: Unl
Heat Index: 50°   Visibility: 6mi
Dew Point: 43°   Wind: 16mph
Humidity: 76%   Direction: 350°N
Pressure: 30.12"   Gusts: 28mph
Location:  37.83°N, 24.93°E
Report Text: LGMK 252120Z 35014G24KT 9999 FEW010 SCT020 10/06 Q1020
Loading
Personal Weather Stations






























Interactive Weather Map New forecast layout! Learn more

10-Day Weather Forecast

Advertisements
Track Severe Weather on mobile